Time;durP1;ratioP1;P1;durP2;ratioP2;P2;SDS_P1;SDS_P2;PMS_P1;PMS_P2;Temp;Humidity;BMP_temperature;BMP_pressure;BME280_temperature;BME280_humidity;BME280_pressure;Samples;Min_cycle;Max_cycle;Signal;HPM_P1;HPM_P2
2022/12/13 00:01:27;;;;;;;7.73;0.67;;;;;;;;;;5116151;28;20100;-72
2022/12/13 00:03:53;;;;;;;1.83;0.60;;;;;;;;;;5115034;28;20016;-72
2022/12/13 00:06:18;;;;;;;4.83;0.87;;;;;;;;;;5115399;28;20083;-71
2022/12/13 00:08:44;;;;;;;2.50;0.57;;;;;;;;;;5115080;28;20055;-72
2022/12/13 00:19:27;;;;;;;2.30;0.50;;;;;;;;;;5115883;28;20055;-73
2022/12/13 00:21:55;;;;;;;1.50;0.23;;;;;;;;;;5114615;28;20472;-70
2022/12/13 00:24:20;;;;;;;3.70;0.90;;;;;;;;;;5116545;28;20030;-71
2022/12/13 00:26:46;;;;;;;6.80;0.83;;;;;;;;;;5119630;28;20071;-73
2022/12/13 00:29:13;;;;;;;9.73;0.87;;;;;;;;;;5118433;28;20426;-72
2022/12/13 00:31:38;;;;;;;4.23;0.70;;;;;;;;;;5114859;28;20118;-71
2022/12/13 00:34:04;;;;;;;3.00;0.70;;;;;;;;;;5115796;28;20012;-71
2022/12/13 00:36:30;;;;;;;5.53;1.87;;;;;;;;;;5114580;28;20019;-72
2022/12/13 00:39:01;;;;;;;4.70;0.60;;;;;;;;;;5114461;28;20049;-78
2022/12/13 00:41:31;;;;;;;2.57;0.83;;;;;;;;;;5117320;28;20027;-72
2022/12/13 00:43:58;;;;;;;1.63;0.60;;;;;;;;;;5117796;28;20026;-72
2022/12/13 00:46:25;;;;;;;2.37;0.60;;;;;;;;;;5115361;28;20024;-70
2022/12/13 00:48:52;;;;;;;2.70;1.17;;;;;;;;;;5114588;28;20106;-72
2022/12/13 00:51:18;;;;;;;4.83;1.13;;;;;;;;;;5113918;28;20026;-70
2022/12/13 00:53:44;;;;;;;8.70;1.63;;;;;;;;;;5114048;28;20016;-69
2022/12/13 00:56:18;;;;;;;5.17;1.03;;;;;;;;;;5115545;28;20020;-73
2022/12/13 00:58:44;;;;;;;6.70;1.30;;;;;;;;;;5113584;28;20098;-74
2022/12/13 01:01:12;;;;;;;9.60;0.60;;;;;;;;;;5114808;28;20019;-74
2022/12/13 01:03:39;;;;;;;6.03;1.17;;;;;;;;;;5113711;28;20112;-71
2022/12/13 01:06:13;;;;;;;1.43;0.60;;;;;;;;;;5113985;28;20428;-70
2022/12/13 01:08:38;;;;;;;3.83;1.00;;;;;;;;;;5113707;28;20421;-70
2022/12/13 01:11:04;;;;;;;1.57;0.40;;;;;;;;;;5113511;28;20011;-71
2022/12/13 01:13:29;;;;;;;20.80;1.80;;;;;;;;;;5115954;28;20027;-72
2022/12/13 01:15:55;;;;;;;9.20;1.87;;;;;;;;;;5115866;28;20048;-70
2022/12/13 01:18:20;;;;;;;6.07;1.33;;;;;;;;;;5116272;28;20015;-72
2022/12/13 01:21:02;;;;;;;3.20;1.10;;;;;;;;;;5114531;28;20081;-71
2022/12/13 01:23:28;;;;;;;8.40;1.53;;;;;;;;;;5113983;28;20019;-72
2022/12/13 01:25:54;;;;;;;2.53;1.00;;;;;;;;;;5115132;28;20400;-71
2022/12/13 01:28:19;;;;;;;2.93;0.90;;;;;;;;;;5113870;28;20399;-71
2022/12/13 01:30:52;;;;;;;4.67;1.33;;;;;;;;;;5113143;28;20425;-73
2022/12/13 01:33:17;;;;;;;7.80;1.37;;;;;;;;;;5113629;28;20015;-70
2022/12/13 01:35:43;;;;;;;6.37;1.47;;;;;;;;;;5114102;28;20087;-71
2022/12/13 01:38:08;;;;;;;3.33;1.17;;;;;;;;;;5116021;28;20016;-71
2022/12/13 01:40:34;;;;;;;3.73;0.80;;;;;;;;;;5113054;28;20457;-72
2022/12/13 01:42:59;;;;;;;5.77;1.50;;;;;;;;;;5113218;28;20106;-73
2022/12/13 01:45:26;;;;;;;2.53;0.93;;;;;;;;;;5113016;28;20019;-71
2022/12/13 01:48:00;;;;;;;2.87;1.13;;;;;;;;;;5113152;28;20023;-72
2022/12/13 01:50:28;;;;;;;4.93;0.93;;;;;;;;;;5114281;28;20065;-72
2022/12/13 01:52:55;;;;;;;5.40;1.23;;;;;;;;;;5113177;28;20055;-74
2022/12/13 01:55:21;;;;;;;4.07;1.63;;;;;;;;;;5115222;28;20066;-75
2022/12/13 01:57:48;;;;;;;0.40;0.20;;;;;;;;;;5114020;28;20114;-73
2022/12/13 02:00:14;;;;;;;5.13;0.83;;;;;;;;;;5113687;28;20466;-70
2022/12/13 02:02:39;;;;;;;2.00;0.30;;;;;;;;;;5113759;28;20055;-71
2022/12/13 02:05:20;;;;;;;2.90;0.97;;;;;;;;;;5114981;28;20094;-71
2022/12/13 02:07:46;;;;;;;3.10;0.83;;;;;;;;;;5115045;28;20120;-73
2022/12/13 02:10:11;;;;;;;9.47;1.93;;;;;;;;;;5118209;28;20486;-73
2022/12/13 02:12:38;;;;;;;13.60;1.70;;;;;;;;;;5117231;28;20031;-74
2022/12/13 02:15:06;;;;;;;1.70;1.00;;;;;;;;;;5114706;28;20494;-72
2022/12/13 02:17:51;;;;;;;6.07;1.23;;;;;;;;;;5112650;28;20012;-72
2022/12/13 02:20:23;;;;;;;8.05;1.83;;;;;;;;;;5115250;28;20039;-71
2022/12/13 02:23:08;;;;;;;2.23;0.60;;;;;;;;;;5113707;28;20539;-71
2022/12/13 02:25:57;;;;;;;2.40;0.63;;;;;;;;;;5114480;28;20054;-72
2022/12/13 02:28:48;;;;;;;8.77;0.87;;;;;;;;;;5110995;28;20122;-73
2022/12/13 02:31:16;;;;;;;2.67;1.00;;;;;;;;;;5114015;28;20083;-73
2022/12/13 02:33:59;;;;;;;2.90;0.83;;;;;;;;;;5114270;28;20026;-71
2022/12/13 02:36:29;;;;;;;4.20;0.70;;;;;;;;;;5112484;28;20111;-71
2022/12/13 02:39:00;;;;;;;2.97;1.17;;;;;;;;;;5112440;28;20481;-72
2022/12/13 02:41:47;;;;;;;3.67;0.87;;;;;;;;;;5112506;28;20015;-72
2022/12/13 02:44:34;;;;;;;1.20;0.63;;;;;;;;;;5112888;28;20024;-73
2022/12/13 02:47:13;;;;;;;3.40;0.93;;;;;;;;;;5113202;28;20024;-74
2022/12/13 02:49:40;;;;;;;4.33;0.93;;;;;;;;;;5112884;28;20024;-72
2022/12/13 02:52:09;;;;;;;2.23;1.17;;;;;;;;;;5112065;28;20019;-71
2022/12/13 02:54:35;;;;;;;2.20;1.00;;;;;;;;;;5113628;28;20499;-72
2022/12/13 02:57:00;;;;;;;4.20;1.33;;;;;;;;;;5112516;28;20411;-72
2022/12/13 02:59:28;;;;;;;2.67;1.63;;;;;;;;;;5113113;28;20027;-72
2022/12/13 03:02:10;;;;;;;5.93;2.03;;;;;;;;;;5113810;28;20464;-72
2022/12/13 03:06:28;;;;;;;5.27;1.67;;;;;;;;;;5116284;28;20028;-71
2022/12/13 03:07:28;;;;;;;2.60;1.60;;;;;;;;;;5117872;28;20034;-73
2022/12/13 03:09:58;;;;;;;1.50;0.50;;;;;;;;;;5118636;28;20586;-72
2022/12/13 03:15:33;;;;;;;8.20;1.20;;;;;;;;;;5118446;28;20368;-71
2022/12/13 03:18:04;;;;;;;4.13;1.17;;;;;;;;;;5119044;28;20476;-72
2022/12/13 03:20:30;;;;;;;2.60;0.87;;;;;;;;;;5118595;28;20031;-72
2022/12/13 03:22:56;;;;;;;1.73;0.60;;;;;;;;;;5118059;28;20019;-78
2022/12/13 03:25:22;;;;;;;12.83;1.33;;;;;;;;;;5117234;28;20016;-74
2022/12/13 03:27:47;;;;;;;2.77;1.60;;;;;;;;;;5118467;28;20502;-73
2022/12/13 03:30:14;;;;;;;5.97;1.50;;;;;;;;;;5121417;28;20016;-73
2022/12/13 03:32:39;;;;;;;2.80;0.70;;;;;;;;;;5120541;28;20052;-73
2022/12/13 03:35:05;;;;;;;3.30;1.10;;;;;;;;;;5116360;28;20027;-72
2022/12/13 03:37:32;;;;;;;3.87;0.87;;;;;;;;;;5117238;28;20110;-73
2022/12/13 03:39:58;;;;;;;3.97;0.73;;;;;;;;;;5120412;28;20412;-73
2022/12/13 03:42:24;;;;;;;4.60;0.70;;;;;;;;;;5119269;28;20020;-74
2022/12/13 03:44:50;;;;;;;2.63;0.90;;;;;;;;;;5117743;28;20019;-75
2022/12/13 03:47:16;;;;;;;13.83;2.00;;;;;;;;;;5115283;28;20030;-71
2022/12/13 03:49:41;;;;;;;2.30;1.30;;;;;;;;;;5115549;28;20019;-71
2022/12/13 03:52:07;;;;;;;2.13;0.90;;;;;;;;;;5116294;28;20023;-72
2022/12/13 03:54:33;;;;;;;3.13;1.10;;;;;;;;;;5119942;28;20012;-74
2022/12/13 03:56:59;;;;;;;5.20;1.57;;;;;;;;;;5119169;28;20472;-73
2022/12/13 03:59:26;;;;;;;19.03;1.00;;;;;;;;;;5116555;28;20089;-71
2022/12/13 04:01:52;;;;;;;1.47;0.70;;;;;;;;;;5116573;28;20341;-73
2022/12/13 04:04:17;;;;;;;4.47;1.13;;;;;;;;;;5115464;28;20019;-72
2022/12/13 04:06:43;;;;;;;1.73;1.00;;;;;;;;;;5115013;28;20046;-73
2022/12/13 04:09:08;;;;;;;0.50;0.40;;;;;;;;;;5114706;28;20016;-72
2022/12/13 04:14:18;;;;;;;0.73;0.50;;;;;;;;;;5115902;28;20044;-72
2022/12/13 04:16:44;;;;;;;1.30;0.57;;;;;;;;;;5115195;28;20472;-73
2022/12/13 04:19:11;;;;;;;5.23;0.90;;;;;;;;;;5114831;28;20051;-72
2022/12/13 04:21:36;;;;;;;3.67;1.23;;;;;;;;;;5113771;28;20020;-72
2022/12/13 04:24:02;;;;;;;7.60;1.07;;;;;;;;;;5114377;28;20049;-72
2022/12/13 04:26:27;;;;;;;4.20;0.97;;;;;;;;;;5114925;28;20020;-73
2022/12/13 04:28:53;;;;;;;0.83;0.50;;;;;;;;;;5116989;28;20028;-72
2022/12/13 04:31:18;;;;;;;5.23;1.10;;;;;;;;;;5115560;28;20142;-73
2022/12/13 04:33:43;;;;;;;3.33;0.73;;;;;;;;;;5116220;28;20127;-74
2022/12/13 04:36:09;;;;;;;4.90;0.80;;;;;;;;;;5114918;28;20777;-71
2022/12/13 04:38:35;;;;;;;1.67;0.90;;;;;;;;;;5114447;28;20047;-74
2022/12/13 04:41:07;;;;;;;3.37;0.77;;;;;;;;;;5115314;28;20041;-73
2022/12/13 04:43:35;;;;;;;2.00;0.77;;;;;;;;;;5114574;28;20117;-72
2022/12/13 04:46:00;;;;;;;3.00;1.17;;;;;;;;;;5114450;28;20019;-74
2022/12/13 04:48:25;;;;;;;2.83;0.83;;;;;;;;;;5114171;28;20046;-76
2022/12/13 04:50:51;;;;;;;2.53;0.93;;;;;;;;;;5114785;28;20027;-72
2022/12/13 04:53:16;;;;;;;7.77;1.60;;;;;;;;;;5114499;28;20020;-74
2022/12/13 04:55:43;;;;;;;2.27;0.87;;;;;;;;;;5116107;28;20028;-73
2022/12/13 04:58:09;;;;;;;4.10;1.47;;;;;;;;;;5114696;28;20418;-74
2022/12/13 05:00:35;;;;;;;1.63;0.73;;;;;;;;;;5115237;28;20049;-75
2022/12/13 05:03:00;;;;;;;2.80;1.47;;;;;;;;;;5115893;28;20026;-74
2022/12/13 05:05:25;;;;;;;2.60;0.97;;;;;;;;;;5114052;28;20034;-73
2022/12/13 05:07:51;;;;;;;4.43;1.20;;;;;;;;;;5114223;28;20106;-73
2022/12/13 05:10:17;;;;;;;3.90;0.90;;;;;;;;;;5114010;28;20114;-76
2022/12/13 05:12:44;;;;;;;2.17;0.80;;;;;;;;;;5114209;28;20015;-72
2022/12/13 05:15:09;;;;;;;2.53;0.70;;;;;;;;;;5117734;28;20019;-74
2022/12/13 05:17:35;;;;;;;3.40;0.60;;;;;;;;;;5118542;28;20371;-75
2022/12/13 05:20:01;;;;;;;3.17;1.37;;;;;;;;;;5118326;28;20073;-76
2022/12/13 05:22:27;;;;;;;3.20;1.30;;;;;;;;;;5120192;28;20137;-76
2022/12/13 05:24:52;;;;;;;1.07;0.63;;;;;;;;;;5118117;28;20031;-74
2022/12/13 05:27:18;;;;;;;4.27;0.90;;;;;;;;;;5119316;28;20112;-76
2022/12/13 05:29:43;;;;;;;2.93;0.90;;;;;;;;;;5117328;28;20015;-75
2022/12/13 05:32:08;;;;;;;4.33;0.97;;;;;;;;;;5117446;28;20048;-75
2022/12/13 05:34:34;;;;;;;1.40;0.70;;;;;;;;;;5119250;28;20015;-74
2022/12/13 05:36:59;;;;;;;2.30;0.83;;;;;;;;;;5117839;28;20023;-78
2022/12/13 05:39:25;;;;;;;6.10;1.17;;;;;;;;;;5115545;28;20023;-75
2022/12/13 05:41:51;;;;;;;2.67;0.60;;;;;;;;;;5116202;28;20336;-76
2022/12/13 05:44:17;;;;;;;1.57;0.53;;;;;;;;;;5116862;28;20024;-77
2022/12/13 05:46:42;;;;;;;1.53;0.77;;;;;;;;;;5120182;28;20076;-75
2022/12/13 05:49:07;;;;;;;4.80;0.83;;;;;;;;;;5117176;28;20475;-77
2022/12/13 05:51:34;;;;;;;1.73;0.70;;;;;;;;;;5117216;28;20028;-76
2022/12/13 05:53:59;;;;;;;0.70;0.30;;;;;;;;;;5116029;28;20022;-76
2022/12/13 05:56:25;;;;;;;1.27;0.70;;;;;;;;;;5117190;28;20047;-75
2022/12/13 05:58:50;;;;;;;1.80;0.80;;;;;;;;;;5113871;28;20020;-75
2022/12/13 06:01:16;;;;;;;2.93;0.80;;;;;;;;;;5115686;28;20031;-75
2022/12/13 06:03:42;;;;;;;2.23;1.10;;;;;;;;;;5114573;28;20380;-77
2022/12/13 06:06:08;;;;;;;3.17;0.70;;;;;;;;;;5114864;28;20020;-74
2022/12/13 06:08:34;;;;;;;3.23;1.30;;;;;;;;;;5114185;28;20114;-77
2022/12/13 06:11:00;;;;;;;0.97;0.30;;;;;;;;;;5114947;28;20050;-76
2022/12/13 06:13:26;;;;;;;1.33;0.67;;;;;;;;;;5112726;28;20023;-76
2022/12/13 06:15:52;;;;;;;0.67;0.40;;;;;;;;;;5112815;28;20360;-73
2022/12/13 06:18:18;;;;;;;2.43;1.47;;;;;;;;;;5112619;28;20020;-77
2022/12/13 06:20:45;;;;;;;0.60;0.30;;;;;;;;;;5113702;28;20042;-76
2022/12/13 06:23:10;;;;;;;1.37;0.70;;;;;;;;;;5113434;28;20016;-77
2022/12/13 06:25:36;;;;;;;2.30;0.83;;;;;;;;;;5112071;28;20123;-76
2022/12/13 06:28:02;;;;;;;2.10;0.83;;;;;;;;;;5113059;28;20019;-76
2022/12/13 06:30:28;;;;;;;2.90;1.13;;;;;;;;;;5111514;28;20111;-77
2022/12/13 06:32:54;;;;;;;1.13;0.20;;;;;;;;;;5114746;28;20496;-76
2022/12/13 06:35:20;;;;;;;0.97;0.50;;;;;;;;;;5115820;28;20106;-75
2022/12/13 06:37:45;;;;;;;4.07;0.67;;;;;;;;;;5113048;28;20128;-75
2022/12/13 06:40:11;;;;;;;5.23;0.77;;;;;;;;;;5112427;28;20035;-76
2022/12/13 06:42:36;;;;;;;1.17;0.63;;;;;;;;;;5111946;28;20016;-75
2022/12/13 06:45:02;;;;;;;1.53;0.70;;;;;;;;;;5114401;28;20043;-75
2022/12/13 06:47:27;;;;;;;1.17;0.40;;;;;;;;;;5116499;28;20038;-73
2022/12/13 06:49:53;;;;;;;6.53;0.90;;;;;;;;;;5116936;28;20022;-74
2022/12/13 06:52:18;;;;;;;0.93;0.70;;;;;;;;;;5117994;28;20016;-76
2022/12/13 06:54:44;;;;;;;1.40;0.70;;;;;;;;;;5117880;28;20026;-75
2022/12/13 06:57:10;;;;;;;1.07;0.87;;;;;;;;;;5115783;28;20020;-74
2022/12/13 06:59:35;;;;;;;1.07;0.50;;;;;;;;;;5117749;28;20031;-75
2022/12/13 07:02:01;;;;;;;4.53;0.83;;;;;;;;;;5117004;28;20026;-74
2022/12/13 07:04:26;;;;;;;1.70;0.70;;;;;;;;;;5117016;28;20015;-74
2022/12/13 07:06:52;;;;;;;2.13;0.60;;;;;;;;;;5116666;28;20372;-75
2022/12/13 07:09:18;;;;;;;0.87;0.40;;;;;;;;;;5115448;28;20043;-74
2022/12/13 07:11:43;;;;;;;2.50;0.40;;;;;;;;;;5117531;28;20065;-74
2022/12/13 07:14:09;;;;;;;2.83;0.50;;;;;;;;;;5116489;28;20026;-74
2022/12/13 07:16:34;;;;;;;1.60;0.40;;;;;;;;;;5116018;28;20027;-74
2022/12/13 07:19:00;;;;;;;1.27;0.47;;;;;;;;;;5116518;28;20015;-74
2022/12/13 07:21:27;;;;;;;1.73;0.53;;;;;;;;;;5115235;28;20031;-74
2022/12/13 07:23:52;;;;;;;1.63;0.60;;;;;;;;;;5115060;28;20011;-75
2022/12/13 07:26:18;;;;;;;1.07;0.50;;;;;;;;;;5114528;28;20026;-74
2022/12/13 07:28:44;;;;;;;1.23;0.60;;;;;;;;;;5115455;28;20415;-74
2022/12/13 07:31:10;;;;;;;3.37;0.50;;;;;;;;;;5116452;28;20492;-75
2022/12/13 07:33:36;;;;;;;1.13;0.43;;;;;;;;;;5115545;28;20110;-75
2022/12/13 07:36:03;;;;;;;1.50;0.80;;;;;;;;;;5116770;28;20458;-74
2022/12/13 07:38:28;;;;;;;0.70;0.50;;;;;;;;;;5114188;28;20115;-73
2022/12/13 07:40:57;;;;;;;1.17;0.50;;;;;;;;;;5116696;28;20119;-76
2022/12/13 07:43:24;;;;;;;1.10;0.40;;;;;;;;;;5117887;28;20058;-75
2022/12/13 07:45:49;;;;;;;2.00;0.50;;;;;;;;;;5116711;28;20015;-74
2022/12/13 07:48:15;;;;;;;3.83;0.70;;;;;;;;;;5113736;28;20042;-74
2022/12/13 07:50:40;;;;;;;1.10;0.53;;;;;;;;;;5114849;28;20491;-73
2022/12/13 07:53:07;;;;;;;0.57;0.27;;;;;;;;;;5113928;28;20012;-74
2022/12/13 07:55:32;;;;;;;1.50;0.53;;;;;;;;;;5114398;28;20023;-75
2022/12/13 07:58:01;;;;;;;2.70;0.30;;;;;;;;;;5116789;28;20020;-73
2022/12/13 08:00:27;;;;;;;1.70;0.50;;;;;;;;;;5116225;28;20023;-74
2022/12/13 08:02:52;;;;;;;4.03;1.03;;;;;;;;;;5117226;28;20065;-74
2022/12/13 08:05:17;;;;;;;1.70;0.90;;;;;;;;;;5113922;28;20047;-73
2022/12/13 08:07:43;;;;;;;1.13;0.57;;;;;;;;;;5116310;28;20080;-74
2022/12/13 08:10:08;;;;;;;4.33;0.73;;;;;;;;;;5117666;28;20020;-72
2022/12/13 08:12:34;;;;;;;0.70;0.40;;;;;;;;;;5116963;28;20146;-75
2022/12/13 08:14:59;;;;;;;1.97;0.80;;;;;;;;;;5115530;28;20147;-75
2022/12/13 08:17:25;;;;;;;1.03;0.30;;;;;;;;;;5114910;28;20015;-75
2022/12/13 08:19:50;;;;;;;1.80;0.87;;;;;;;;;;5114162;28;20042;-75
2022/12/13 08:22:16;;;;;;;1.07;0.97;;;;;;;;;;5115619;28;20016;-73
2022/12/13 08:24:41;;;;;;;0.93;0.50;;;;;;;;;;5114914;28;20406;-73
2022/12/13 08:27:07;;;;;;;1.77;1.40;;;;;;;;;;5114157;28;20118;-73
2022/12/13 08:29:33;;;;;;;2.37;0.50;;;;;;;;;;5115876;28;20045;-73
2022/12/13 08:31:59;;;;;;;0.83;0.50;;;;;;;;;;5114391;28;20058;-74
2022/12/13 08:34:24;;;;;;;1.20;0.57;;;;;;;;;;5113569;28;20094;-74
2022/12/13 08:36:51;;;;;;;2.17;0.87;;;;;;;;;;5114188;28;20072;-73
2022/12/13 08:39:16;;;;;;;1.60;0.40;;;;;;;;;;5113828;28;20031;-75
2022/12/13 08:41:42;;;;;;;1.47;0.70;;;;;;;;;;5114196;28;20023;-75
2022/12/13 08:44:07;;;;;;;1.23;0.47;;;;;;;;;;5113573;28;20016;-73
2022/12/13 08:46:32;;;;;;;0.57;0.33;;;;;;;;;;5113699;28;20104;-74
2022/12/13 08:48:58;;;;;;;1.53;0.90;;;;;;;;;;5115249;28;20018;-74
2022/12/13 08:51:24;;;;;;;2.17;0.37;;;;;;;;;;5114043;28;20045;-74
2022/12/13 08:53:49;;;;;;;2.43;0.60;;;;;;;;;;5113885;28;20050;-76
2022/12/13 08:56:17;;;;;;;1.73;0.40;;;;;;;;;;5114474;28;20019;-75
2022/12/13 08:58:43;;;;;;;0.93;0.40;;;;;;;;;;5114074;28;20088;-74
2022/12/13 09:01:08;;;;;;;1.60;0.83;;;;;;;;;;5114693;28;20028;-73
2022/12/13 09:03:34;;;;;;;2.10;0.67;;;;;;;;;;5113778;28;20490;-74
2022/12/13 09:06:10;;;;;;;7.57;2.13;;;;;;;;;;5115687;28;20023;-73
2022/12/13 09:08:36;;;;;;;1.33;0.53;;;;;;;;;;5114886;28;20019;-75
2022/12/13 09:11:02;;;;;;;0.80;0.50;;;;;;;;;;5114789;28;20102;-74
2022/12/13 09:13:28;;;;;;;1.87;0.60;;;;;;;;;;5114967;28;20100;-75
2022/12/13 09:15:53;;;;;;;2.70;0.87;;;;;;;;;;5113436;28;20024;-75
2022/12/13 09:18:19;;;;;;;2.57;1.00;;;;;;;;;;5112967;28;20026;-73
2022/12/13 09:20:44;;;;;;;2.23;0.90;;;;;;;;;;5112660;28;20379;-74
2022/12/13 09:23:10;;;;;;;2.90;0.60;;;;;;;;;;5112530;28;20043;-75
2022/12/13 09:25:35;;;;;;;3.03;0.87;;;;;;;;;;5114406;28;20020;-75
2022/12/13 09:28:01;;;;;;;2.47;0.77;;;;;;;;;;5113210;28;20054;-75
2022/12/13 09:30:26;;;;;;;0.77;0.47;;;;;;;;;;5114048;28;20074;-74
2022/12/13 09:32:52;;;;;;;1.03;0.70;;;;;;;;;;5113959;28;20019;-75
2022/12/13 09:35:17;;;;;;;3.23;0.67;;;;;;;;;;5111776;28;20031;-74
2022/12/13 09:37:43;;;;;;;1.07;0.50;;;;;;;;;;5113925;28;20429;-73
2022/12/13 09:40:11;;;;;;;3.33;1.70;;;;;;;;;;5112620;28;20033;-75
2022/12/13 09:42:38;;;;;;;5.53;2.17;;;;;;;;;;5114300;28;20065;-75
2022/12/13 09:45:05;;;;;;;1.53;0.60;;;;;;;;;;5112591;28;20047;-74
2022/12/13 09:47:33;;;;;;;3.07;0.67;;;;;;;;;;5113735;28;20019;-74
2022/12/13 09:50:01;;;;;;;0.80;0.30;;;;;;;;;;5113076;28;20119;-74
2022/12/13 09:52:29;;;;;;;2.00;0.97;;;;;;;;;;5113026;28;20016;-74
2022/12/13 09:54:56;;;;;;;2.53;0.53;;;;;;;;;;5114134;28;20356;-74
2022/12/13 09:57:24;;;;;;;4.07;1.17;;;;;;;;;;5113986;28;20047;-74
2022/12/13 09:59:50;;;;;;;4.50;1.73;;;;;;;;;;5114102;28;20121;-73
2022/12/13 10:02:20;;;;;;;2.00;1.00;;;;;;;;;;5113208;28;20027;-77
2022/12/13 10:04:45;;;;;;;4.67;2.07;;;;;;;;;;5114656;28;20027;-76
2022/12/13 10:07:16;;;;;;;4.43;1.83;;;;;;;;;;5114834;28;20023;-74
2022/12/13 10:09:41;;;;;;;2.20;1.10;;;;;;;;;;5114778;28;20007;-75
2022/12/13 10:12:09;;;;;;;5.20;1.73;;;;;;;;;;5113392;28;20408;-76
2022/12/13 10:14:39;;;;;;;1.47;0.97;;;;;;;;;;5112735;28;20074;-74
2022/12/13 10:17:07;;;;;;;1.40;0.87;;;;;;;;;;5112251;28;20022;-74
2022/12/13 10:19:34;;;;;;;2.37;1.13;;;;;;;;;;5113166;28;20479;-74
2022/12/13 10:22:00;;;;;;;3.77;1.10;;;;;;;;;;5114029;28;20068;-75
2022/12/13 10:24:29;;;;;;;0.50;0.33;;;;;;;;;;5113622;28;20157;-74
2022/12/13 10:27:18;;;;;;;1.23;0.47;;;;;;;;;;5112971;28;20027;-76
2022/12/13 10:29:58;;;;;;;1.73;0.73;;;;;;;;;;5109951;28;20039;-74
2022/12/13 10:32:23;;;;;;;1.87;1.00;;;;;;;;;;5111873;28;20055;-74
2022/12/13 10:34:49;;;;;;;3.73;1.23;;;;;;;;;;5111989;28;20443;-74
2022/12/13 10:37:31;;;;;;;4.67;0.90;;;;;;;;;;5112223;28;20027;-74
2022/12/13 10:39:57;;;;;;;3.83;1.73;;;;;;;;;;5111585;28;20062;-73
2022/12/13 10:42:23;;;;;;;5.57;1.10;;;;;;;;;;5112800;28;20134;-75
2022/12/13 10:44:48;;;;;;;4.53;2.03;;;;;;;;;;5114778;28;20019;-74
2022/12/13 10:47:22;;;;;;;3.53;1.10;;;;;;;;;;5112412;28;20016;-73
2022/12/13 10:49:58;;;;;;;2.27;1.27;;;;;;;;;;5111401;28;20028;-73
2022/12/13 10:52:26;;;;;;;2.10;0.63;;;;;;;;;;5111158;28;20038;-74
2022/12/13 10:54:53;;;;;;;2.47;1.10;;;;;;;;;;5111791;28;20332;-75
2022/12/13 10:57:18;;;;;;;1.53;1.00;;;;;;;;;;5113569;28;20490;-74
2022/12/13 10:59:45;;;;;;;1.57;0.47;;;;;;;;;;5112962;28;20099;-74
2022/12/13 11:02:30;;;;;;;2.27;0.80;;;;;;;;;;5113150;28;20117;-74
2022/12/13 11:04:57;;;;;;;3.83;1.02;;;;;;;;;;5110472;28;20092;-74
2022/12/13 11:07:23;;;;;;;2.40;0.60;;;;;;;;;;5111122;28;20019;-74
2022/12/13 11:09:49;;;;;;;1.80;0.80;;;;;;;;;;5111227;28;20027;-74
2022/12/13 11:12:17;;;;;;;3.30;1.20;;;;;;;;;;5110951;28;20036;-75
2022/12/13 11:14:54;;;;;;;1.90;0.93;;;;;;;;;;5111106;28;20027;-75
2022/12/13 11:17:21;;;;;;;4.27;1.53;;;;;;;;;;5110649;28;20150;-73
2022/12/13 11:20:13;;;;;;;3.07;1.30;;;;;;;;;;5112740;28;20039;-74
2022/12/13 11:22:39;;;;;;;6.37;1.80;;;;;;;;;;5108978;28;20122;-73
2022/12/13 11:25:16;;;;;;;208.47;72.77;;;;;;;;;;5110321;28;20066;-74
2022/12/13 11:27:53;;;;;;;2.63;0.93;;;;;;;;;;5112338;28;20102;-75
2022/12/13 11:30:54;;;;;;;2.40;0.77;;;;;;;;;;5112673;28;20414;-74
2022/12/13 11:33:43;;;;;;;3.77;1.07;;;;;;;;;;5076782;28;20047;-73
2022/12/13 11:36:27;;;;;;;2.33;0.90;;;;;;;;;;5073458;28;20036;-75
2022/12/13 11:39:05;;;;;;;3.33;1.27;;;;;;;;;;5075880;28;20020;-74
2022/12/13 11:41:49;;;;;;;2.07;0.70;;;;;;;;;;5075134;28;20508;-74
2022/12/13 11:44:24;;;;;;;2.17;0.77;;;;;;;;;;5073836;28;20119;-75
2022/12/13 11:46:59;;;;;;;2.88;1.13;;;;;;;;;;5074845;28;20434;-75
2022/12/13 11:49:35;;;;;;;1.87;0.90;;;;;;;;;;5073917;28;20029;-73
2022/12/13 11:52:10;;;;;;;2.10;1.20;;;;;;;;;;5073725;28;20017;-74
2022/12/13 11:54:54;;;;;;;3.80;1.20;;;;;;;;;;5075419;28;20020;-74
2022/12/13 11:57:29;;;;;;;1.50;0.77;;;;;;;;;;5074432;28;20032;-74
2022/12/13 12:00:18;;;;;;;1.63;0.90;;;;;;;;;;5073636;28;20035;-75
2022/12/13 12:02:47;;;;;;;1.73;0.87;;;;;;;;;;5083251;28;20040;-74
2022/12/13 12:05:25;;;;;;;2.90;1.97;;;;;;;;;;5074513;28;20329;-75
2022/12/13 12:07:54;;;;;;;3.20;1.00;;;;;;;;;;5075316;28;20048;-72
2022/12/13 12:10:37;;;;;;;1.43;0.40;;;;;;;;;;5073307;28;20013;-73
2022/12/13 12:13:15;;;;;;;1.93;0.83;;;;;;;;;;5075209;28;20437;-72
2022/12/13 12:15:44;;;;;;;0.80;0.50;;;;;;;;;;5075890;28;20027;-73
2022/12/13 12:18:14;;;;;;;2.77;1.10;;;;;;;;;;5075802;28;20108;-73
2022/12/13 12:20:39;;;;;;;1.40;1.00;;;;;;;;;;5073968;28;20101;-74
2022/12/13 12:23:31;;;;;;;4.53;1.13;;;;;;;;;;5073325;28;20357;-73
2022/12/13 12:26:18;;;;;;;1.37;0.57;;;;;;;;;;5072757;28;20039;-74
2022/12/13 12:29:02;;;;;;;2.70;0.67;;;;;;;;;;5073289;28;20043;-73
2022/12/13 12:31:34;;;;;;;1.33;0.70;;;;;;;;;;5086897;28;20399;-73
2022/12/13 12:34:15;;;;;;;0.83;0.23;;;;;;;;;;5113865;28;20019;-74
2022/12/13 12:36:52;;;;;;;2.80;0.60;;;;;;;;;;5113677;28;20418;-74
2022/12/13 12:39:21;;;;;;;1.87;0.70;;;;;;;;;;5112982;28;20101;-73
2022/12/13 12:41:51;;;;;;;6.80;0.83;;;;;;;;;;5113045;28;20025;-72
2022/12/13 12:44:20;;;;;;;1.90;0.77;;;;;;;;;;5113818;28;20026;-72
2022/12/13 12:46:45;;;;;;;2.23;0.97;;;;;;;;;;5113808;28;20513;-72
2022/12/13 12:49:29;;;;;;;4.47;1.10;;;;;;;;;;5115804;28;20024;-73
2022/12/13 12:52:11;;;;;;;2.63;0.80;;;;;;;;;;5116362;28;20051;-73
2022/12/13 12:54:36;;;;;;;1.87;0.53;;;;;;;;;;5115305;28;20028;-73
2022/12/13 12:57:02;;;;;;;2.57;1.17;;;;;;;;;;5116419;28;20023;-72
2022/12/13 12:59:46;;;;;;;1.23;0.50;;;;;;;;;;5114884;28;20027;-76
2022/12/13 13:02:24;;;;;;;1.40;0.70;;;;;;;;;;5113354;28;20072;-72
2022/12/13 13:04:56;;;;;;;1.83;0.60;;;;;;;;;;5112691;28;20463;-72
2022/12/13 13:07:41;;;;;;;2.27;1.03;;;;;;;;;;5113567;28;20053;-71
2022/12/13 13:10:08;;;;;;;2.00;0.97;;;;;;;;;;5114486;28;20131;-72
2022/12/13 13:12:36;;;;;;;1.47;0.80;;;;;;;;;;5114198;28;20028;-71
2022/12/13 13:15:21;;;;;;;2.40;0.83;;;;;;;;;;5112568;28;20016;-72
2022/12/13 13:17:47;;;;;;;1.58;0.52;;;;;;;;;;5113378;28;20035;-74
2022/12/13 13:20:22;;;;;;;2.50;0.90;;;;;;;;;;5113761;28;20423;-74
2022/12/13 13:22:49;;;;;;;1.38;0.57;;;;;;;;;;5115956;28;20024;-73
2022/12/13 13:25:26;;;;;;;4.57;0.67;;;;;;;;;;5113579;28;20504;-73
2022/12/13 13:28:04;;;;;;;1.57;0.73;;;;;;;;;;5112404;28;20039;-73
2022/12/13 13:30:30;;;;;;;1.53;0.50;;;;;;;;;;5112975;28;20023;-73
2022/12/13 13:32:58;;;;;;;4.83;0.87;;;;;;;;;;5114297;28;20059;-75
2022/12/13 13:35:26;;;;;;;1.27;0.80;;;;;;;;;;5116002;28;20095;-75
2022/12/13 13:37:52;;;;;;;4.53;0.80;;;;;;;;;;5113723;28;20475;-72
2022/12/13 13:40:34;;;;;;;1.93;0.70;;;;;;;;;;5112318;28;20032;-73
2022/12/13 13:43:02;;;;;;;13.40;5.57;;;;;;;;;;5112390;28;20467;-72
2022/12/13 13:45:28;;;;;;;2.43;0.73;;;;;;;;;;5114527;28;20054;-73
2022/12/13 13:48:16;;;;;;;3.20;0.73;;;;;;;;;;5111796;28;20020;-72
2022/12/13 13:50:49;;;;;;;1.03;0.80;;;;;;;;;;5105968;28;20500;-73
2022/12/13 13:53:17;;;;;;;2.47;0.70;;;;;;;;;;5111230;28;20080;-72
2022/12/13 13:55:54;;;;;;;1.73;0.63;;;;;;;;;;5111889;28;20020;-72
2022/12/13 13:58:20;;;;;;;2.13;0.50;;;;;;;;;;5112156;28;20406;-72
2022/12/13 14:00:57;;;;;;;3.23;1.00;;;;;;;;;;5111258;28;20027;-73
2022/12/13 14:03:41;;;;;;;3.47;1.10;;;;;;;;;;5112015;28;20485;-72
2022/12/13 14:06:25;;;;;;;20.27;6.33;;;;;;;;;;5113006;28;20019;-73
2022/12/13 14:09:00;;;;;;;2.17;1.10;;;;;;;;;;5112432;28;20425;-71
2022/12/13 14:11:44;;;;;;;2.78;0.88;;;;;;;;;;5112064;28;20023;-72
2022/12/13 14:14:27;;;;;;;3.93;1.20;;;;;;;;;;5111630;28;20506;-72
2022/12/13 14:16:53;;;;;;;2.77;1.30;;;;;;;;;;5111253;28;20015;-71
2022/12/13 14:19:33;;;;;;;2.57;1.27;;;;;;;;;;5112892;28;20118;-71
2022/12/13 14:22:05;;;;;;;2.00;0.93;;;;;;;;;;5113751;28;20137;-74
2022/12/13 14:24:42;;;;;;;1.83;0.80;;;;;;;;;;5112440;28;20012;-72
2022/12/13 14:27:09;;;;;;;1.63;0.77;;;;;;;;;;5113008;28;20026;-72
2022/12/13 14:29:42;;;;;;;2.50;1.00;;;;;;;;;;5113417;28;20027;-71
2022/12/13 14:32:21;;;;;;;4.03;0.90;;;;;;;;;;5113326;28;20383;-72
2022/12/13 14:34:47;;;;;;;3.13;1.10;;;;;;;;;;5111765;28;20026;-72
2022/12/13 14:37:29;;;;;;;2.93;0.87;;;;;;;;;;5111751;28;20016;-72
2022/12/13 14:39:56;;;;;;;3.50;0.80;;;;;;;;;;5112353;28;20043;-72
2022/12/13 14:42:24;;;;;;;3.40;1.10;;;;;;;;;;5112350;28;20023;-72
2022/12/13 14:44:49;;;;;;;3.30;0.93;;;;;;;;;;5111484;28;20085;-72
2022/12/13 14:47:15;;;;;;;2.07;0.87;;;;;;;;;;5111381;28;20468;-72
2022/12/13 14:49:41;;;;;;;1.13;0.73;;;;;;;;;;5110653;28;20401;-72
2022/12/13 14:52:18;;;;;;;2.70;1.37;;;;;;;;;;5112367;28;20431;-72
2022/12/13 14:55:03;;;;;;;2.00;0.77;;;;;;;;;;5112060;28;20486;-71
2022/12/13 14:57:30;;;;;;;4.73;1.43;;;;;;;;;;5112122;28;20103;-71
2022/12/13 14:59:56;;;;;;;3.77;1.33;;;;;;;;;;5114393;28;20053;-72
2022/12/13 15:02:25;;;;;;;2.37;0.77;;;;;;;;;;5111243;28;20103;-72
2022/12/13 15:04:55;;;;;;;1.43;0.80;;;;;;;;;;5113118;28;20015;-73
2022/12/13 15:07:24;;;;;;;4.07;0.90;;;;;;;;;;5115386;28;20023;-72
2022/12/13 15:10:04;;;;;;;5.97;1.23;;;;;;;;;;5115233;28;20103;-72